createdAt,value
2022-10-01T00:00:17.931Z,71.40
2022-10-01T00:05:23.178Z,71.50
2022-10-01T00:10:26.839Z,71.40
2022-10-01T00:15:30.353Z,71.20
2022-10-01T00:20:35.259Z,71.00
2022-10-01T00:25:39.360Z,70.90
2022-10-01T00:30:48.948Z,70.80
2022-10-01T00:35:55.988Z,70.60
2022-10-01T00:40:59.852Z,70.50
2022-10-01T00:46:11.266Z,70.60
2022-10-01T00:51:16.399Z,70.40
2022-10-01T00:56:20.240Z,70.50
2022-10-01T01:01:24.829Z,70.60
2022-10-01T01:06:29.964Z,70.50
2022-10-01T01:11:46.178Z,70.60
2022-10-01T01:16:55.363Z,70.70
2022-10-01T01:22:07.172Z,70.80
2022-10-01T01:27:42.869Z,71.00
2022-10-01T01:32:55.473Z,71.10
2022-10-01T01:38:06.491Z,71.20
2022-10-01T01:43:17.566Z,71.30
2022-10-01T01:48:24.799Z,71.20
2022-10-01T01:53:30.267Z,71.30
2022-10-01T01:58:36.173Z,71.30
2022-10-01T02:03:41.860Z,71.40
2022-10-01T02:08:52.476Z,71.40
2022-10-01T02:14:09.945Z,71.40
2022-10-01T02:19:22.498Z,71.30
2022-10-01T02:24:38.501Z,71.40
2022-10-01T02:29:45.087Z,71.40
2022-10-01T02:34:52.235Z,71.30
2022-10-01T02:39:57.852Z,71.30
2022-10-01T02:45:03.456Z,71.30
2022-10-01T02:50:11.094Z,71.10
2022-10-01T02:55:19.194Z,71.10
2022-10-01T03:00:25.296Z,71.30
2022-10-01T03:05:30.310Z,71.30
2022-10-01T03:10:34.854Z,71.30
2022-10-01T03:15:38.539Z,71.40
2022-10-01T03:20:43.596Z,71.60
2022-10-01T03:25:47.022Z,71.60
2022-10-01T03:30:50.538Z,71.60
2022-10-01T03:35:55.410Z,71.50
2022-10-01T03:40:58.977Z,71.60
2022-10-01T03:46:02.996Z,71.70
2022-10-01T03:51:08.311Z,71.70
2022-10-01T03:56:11.809Z,71.80
2022-10-01T04:01:15.446Z,71.90
2022-10-01T04:06:20.888Z,72.00
2022-10-01T04:11:24.582Z,72.00
2022-10-01T04:16:28.426Z,72.00
2022-10-01T04:21:33.795Z,71.80
2022-10-01T04:26:37.531Z,71.70
2022-10-01T04:31:41.043Z,71.70
2022-10-01T04:36:46.089Z,71.60
2022-10-01T04:41:50.031Z,71.50
2022-10-01T04:46:53.558Z,71.50
2022-10-01T04:51:58.447Z,71.50
2022-10-01T04:57:01.914Z,71.60
2022-10-01T05:02:05.539Z,71.60
2022-10-01T05:07:10.418Z,71.80
2022-10-01T05:12:13.861Z,71.80
2022-10-01T05:17:18.351Z,71.90
2022-10-01T05:22:23.189Z,72.00
2022-10-01T05:27:26.822Z,72.00
2022-10-01T05:32:30.380Z,72.00
2022-10-01T05:37:35.468Z,72.70
2022-10-01T05:42:38.990Z,72.30
2022-10-01T05:47:42.726Z,72.20
2022-10-01T05:52:55.186Z,72.40
2022-10-01T05:58:01.543Z,72.60
2022-10-01T06:03:07.341Z,73.00
2022-10-01T06:08:12.321Z,73.30
2022-10-01T06:13:17.934Z,73.40
2022-10-01T06:18:21.718Z,73.60
2022-10-01T06:23:26.823Z,73.50
2022-10-01T06:28:30.469Z,73.50
2022-10-01T06:33:34.076Z,73.60
2022-10-01T06:38:38.919Z,74.60
2022-10-01T06:43:42.537Z,74.00
2022-10-01T06:48:46.031Z,74.10
2022-10-01T06:53:50.913Z,74.10
2022-10-01T06:58:54.729Z,73.70
2022-10-01T07:03:59.195Z,73.90
2022-10-01T07:09:04.319Z,74.00
2022-10-01T07:14:08.055Z,74.10
2022-10-01T07:19:12.072Z,73.70
2022-10-01T07:24:16.973Z,74.30
2022-10-01T07:29:20.441Z,74.10
2022-10-01T07:34:25.146Z,73.60
2022-10-01T07:39:30.664Z,73.00
2022-10-01T07:44:34.238Z,72.70
2022-10-01T07:49:37.694Z,72.40
2022-10-01T07:54:42.469Z,72.30
2022-10-01T07:59:45.929Z,71.80
2022-10-01T08:05:06.735Z,71.60
2022-10-01T08:10:11.645Z,71.50
2022-10-01T08:15:18.762Z,71.40
2022-10-01T08:20:22.605Z,72.00
2022-10-01T08:25:27.772Z,71.20
2022-10-01T08:30:31.701Z,71.20
2022-10-01T08:35:35.342Z,71.00
2022-10-01T08:40:47.490Z,71.00
2022-10-01T08:45:55.705Z,71.60
2022-10-01T08:51:08.492Z,70.80
2022-10-01T08:56:21.675Z,70.90
2022-10-01T09:01:25.303Z,71.00
2022-10-01T09:06:30.471Z,71.10
2022-10-01T09:11:59.870Z,71.00
2022-10-01T09:17:15.282Z,71.20
2022-10-01T09:22:34.935Z,71.30
2022-10-01T09:27:40.798Z,71.40
2022-10-01T09:32:50.911Z,71.50
2022-10-01T09:38:01.752Z,71.70
2022-10-01T09:43:09.251Z,71.70
2022-10-01T09:48:26.025Z,71.80
2022-10-01T09:53:38.255Z,71.80
2022-10-01T09:58:49.353Z,72.70
2022-10-01T10:03:58.593Z,71.90
2022-10-01T10:09:03.633Z,71.90
2022-10-01T10:14:20.118Z,71.90
2022-10-01T10:19:28.094Z,72.00
2022-10-01T10:24:36.059Z,72.10
2022-10-01T10:29:40.927Z,72.30
2022-10-01T10:34:47.519Z,72.30
2022-10-01T10:39:53.672Z,72.40
2022-10-01T10:45:10.101Z,72.40
2022-10-01T10:50:36.100Z,72.70
2022-10-01T10:55:40.120Z,72.90
2022-10-01T11:00:51.375Z,73.50
2022-10-01T11:05:56.366Z,73.80
2022-10-01T11:11:21.141Z,73.80
2022-10-01T11:17:01.925Z,73.70
2022-10-01T11:22:31.560Z,74.80
2022-10-01T11:27:48.985Z,73.70
2022-10-01T11:33:06.270Z,73.60
2022-10-01T11:38:57.566Z,73.50
2022-10-01T11:44:08.359Z,73.40
2022-10-01T11:49:37.792Z,73.30
2022-10-01T11:55:19.895Z,73.20
2022-10-01T12:00:27.264Z,73.20
2022-10-01T12:05:35.646Z,73.00
2022-10-01T12:10:45.936Z,73.00
2022-10-01T12:15:56.047Z,73.00
2022-10-01T12:21:04.770Z,73.00
2022-10-01T12:26:18.976Z,73.10
2022-10-01T12:31:29.910Z,73.10
2022-10-01T12:36:49.874Z,73.10
2022-10-01T12:42:12.166Z,73.70
2022-10-01T12:47:41.398Z,73.10
2022-10-01T12:53:12.585Z,73.20
2022-10-01T12:58:43.725Z,73.10
2022-10-01T13:04:19.326Z,73.10
2022-10-01T13:09:34.048Z,73.10
2022-10-01T13:14:38.255Z,73.10
2022-10-01T13:19:51.453Z,73.10
2022-10-01T13:25:06.772Z,73.10
2022-10-01T13:30:20.497Z,73.10
2022-10-01T13:35:35.252Z,73.10
2022-10-01T13:40:40.906Z,72.60
2022-10-01T13:45:47.612Z,71.30
2022-10-01T13:51:03.587Z,70.60
2022-10-01T13:56:11.484Z,67.30
2022-10-01T14:01:40.551Z,66.30
2022-10-01T14:06:53.490Z,65.40
2022-10-01T14:12:25.075Z,64.50
2022-10-01T14:17:33.340Z,65.50
2022-10-01T14:23:00.438Z,64.10
2022-10-01T14:28:28.313Z,64.10
2022-10-01T14:34:04.213Z,63.50
2022-10-01T14:39:17.135Z,61.70
2022-10-01T14:44:29.197Z,61.10
2022-10-01T14:49:34.372Z,64.00
2022-10-01T14:54:45.927Z,69.00
2022-10-01T14:59:51.076Z,70.00
2022-10-01T15:04:58.190Z,70.50
2022-10-01T15:10:09.535Z,70.50
2022-10-01T15:15:35.109Z,70.40
2022-10-01T15:20:38.657Z,70.60
2022-10-01T15:25:46.098Z,71.60
2022-10-01T15:30:52.214Z,72.60
2022-10-01T15:35:59.386Z,72.10
2022-10-01T15:41:30.596Z,72.20
2022-10-01T15:46:35.606Z,72.40
2022-10-01T15:52:07.334Z,72.50
2022-10-01T15:57:18.327Z,72.30
2022-10-01T16:02:27.594Z,72.40
2022-10-01T16:07:35.431Z,72.40
2022-10-01T16:12:39.049Z,72.50
2022-10-01T16:17:57.769Z,72.10
2022-10-01T16:23:42.118Z,72.20
2022-10-01T16:28:45.656Z,72.40
2022-10-01T16:33:50.522Z,72.30
2022-10-01T16:38:53.983Z,72.20
2022-10-01T16:43:59.166Z,72.20
2022-10-01T16:49:13.707Z,72.30
2022-10-01T16:54:24.734Z,72.40
2022-10-01T16:59:28.295Z,72.40
2022-10-01T17:04:33.954Z,72.40
2022-10-01T17:09:37.765Z,72.30
2022-10-01T17:14:41.519Z,72.30
2022-10-01T17:19:46.335Z,72.40
2022-10-01T17:24:49.890Z,72.30
2022-10-01T17:29:53.667Z,72.30
2022-10-01T17:34:58.884Z,72.40
2022-10-01T17:40:03.067Z,72.40
2022-10-01T17:45:10.914Z,72.40
2022-10-01T17:50:17.641Z,72.40
2022-10-01T17:55:23.655Z,72.40
2022-10-01T18:00:27.218Z,72.30
2022-10-01T18:05:32.277Z,72.60
2022-10-01T18:10:35.812Z,72.40
2022-10-01T18:15:39.306Z,73.10
2022-10-01T18:20:44.200Z,72.60
2022-10-01T18:25:47.689Z,72.20
2022-10-01T18:30:55.836Z,71.60
2022-10-01T18:36:01.842Z,71.20
2022-10-01T18:41:12.405Z,70.90
2022-10-01T18:46:39.008Z,70.80
2022-10-01T18:52:04.661Z,70.60
2022-10-01T18:57:26.424Z,70.40
2022-10-01T19:03:23.759Z,70.40
2022-10-01T19:09:06.832Z,70.30
2022-10-01T19:14:43.739Z,70.30
2022-10-01T19:20:05.620Z,70.50
2022-10-01T19:25:20.688Z,70.20
2022-10-01T19:30:24.244Z,70.30
2022-10-01T19:35:33.869Z,70.30
2022-10-01T19:40:43.069Z,70.40
2022-10-01T19:45:55.525Z,70.50
2022-10-01T19:51:10.155Z,70.70
2022-10-01T19:56:21.781Z,70.70
2022-10-01T20:01:36.788Z,70.60
2022-10-01T20:06:45.728Z,70.80
2022-10-01T20:11:58.982Z,70.60
2022-10-01T20:17:09.514Z,70.50
2022-10-01T20:22:26.215Z,70.40
2022-10-01T20:27:49.076Z,70.40
2022-10-01T20:33:05.877Z,70.20
2022-10-01T20:38:17.740Z,70.00
2022-10-01T20:43:32.378Z,70.00
2022-10-01T20:48:43.367Z,70.00
2022-10-01T20:53:54.418Z,70.00
2022-10-01T20:59:07.878Z,70.00
2022-10-01T21:04:19.570Z,70.00
2022-10-01T21:09:30.532Z,70.10
2022-10-01T21:14:43.185Z,70.30
2022-10-01T21:20:39.987Z,69.80
2022-10-01T21:26:01.517Z,70.10
2022-10-01T21:31:27.837Z,70.10
2022-10-01T21:36:39.561Z,70.50
2022-10-01T21:41:57.551Z,71.10
2022-10-01T21:47:09.587Z,71.20
2022-10-01T21:52:34.476Z,71.40
2022-10-01T21:58:04.077Z,71.60
2022-10-01T22:03:20.338Z,71.70
2022-10-01T22:08:48.723Z,71.80
2022-10-01T22:13:57.213Z,71.70
2022-10-01T22:19:12.552Z,71.70
2022-10-01T22:24:21.406Z,71.70
2022-10-01T22:29:30.575Z,71.60
2022-10-01T22:34:42.527Z,71.50
2022-10-01T22:39:53.094Z,71.50
2022-10-01T22:44:57.805Z,71.50
2022-10-01T22:50:24.226Z,71.50
2022-10-01T22:55:40.838Z,71.50
2022-10-01T23:00:53.909Z,71.60
2022-10-01T23:06:10.591Z,71.80
2022-10-01T23:11:24.637Z,71.80
2022-10-01T23:16:40.009Z,71.80
2022-10-01T23:21:55.948Z,71.90
2022-10-01T23:27:12.185Z,72.00
2022-10-01T23:32:37.979Z,72.00
2022-10-01T23:38:07.595Z,72.00
2022-10-01T23:43:19.908Z,72.10
2022-10-01T23:48:34.432Z,72.20
2022-10-01T23:53:46.707Z,72.30
2022-10-01T23:58:57.410Z,72.50
